Time;durP1;ratioP1;P1;durP2;ratioP2;P2;SDS_P1;SDS_P2;PMS_P1;PMS_P2;Temp;Humidity;BMP_temperature;BMP_pressure;BME280_temperature;BME280_humidity;BME280_pressure;Samples;Min_cycle;Max_cycle;Signal;HPM_P1;HPM_P2
2022/07/13 00:01:00;;;;;;;4.00;3.22;;;;;;;21.56;90.88;102051.88;5011970;28;20052;-35
2022/07/13 00:03:28;;;;;;;4.82;3.13;;;;;;;21.59;90.31;102053.16;5011889;28;20165;-33
2022/07/13 00:05:56;;;;;;;4.53;3.10;;;;;;;21.62;89.47;102026.91;5008917;28;20173;-34
2022/07/13 00:08:25;;;;;;;3.83;2.90;;;;;;;21.66;88.81;102027.88;5011899;28;20042;-33
2022/07/13 00:10:53;;;;;;;4.93;2.47;;;;;;;21.70;87.98;102013.81;5011736;28;20052;-39
2022/07/13 00:13:21;;;;;;;4.13;2.50;;;;;;;21.72;87.38;102011.47;5012132;28;20045;-32
2022/07/13 00:15:48;;;;;;;4.65;2.70;;;;;;;21.75;86.98;102016.47;5011518;28;20060;-32
2022/07/13 00:18:17;;;;;;;4.28;2.65;;;;;;;21.77;86.15;102005.59;5011799;28;20076;-38
2022/07/13 00:20:45;;;;;;;4.28;2.55;;;;;;;21.78;85.79;101984.53;5011920;28;20133;-36
2022/07/13 00:23:12;;;;;;;3.42;2.28;;;;;;;21.79;85.71;101989.81;5011705;28;20054;-34
2022/07/13 00:25:42;;;;;;;5.43;2.72;;;;;;;21.79;85.84;102011.72;5011987;28;20077;-38
2022/07/13 00:28:09;;;;;;;3.25;2.60;;;;;;;21.78;85.61;102016.56;5012288;28;20395;-33
2022/07/13 00:30:37;;;;;;;3.75;2.45;;;;;;;21.80;86.03;102021.91;5011376;28;20556;-37
2022/07/13 00:33:07;;;;;;;5.55;2.92;;;;;;;21.81;86.24;102020.75;5011840;28;20133;-32
2022/07/13 00:35:35;;;;;;;3.33;2.28;;;;;;;21.81;86.70;102018.72;4999838;28;20047;-41
2022/07/13 00:38:02;;;;;;;4.25;2.65;;;;;;;21.79;87.04;102015.41;5006411;28;20046;-32
2022/07/13 00:40:30;;;;;;;2.95;2.63;;;;;;;21.80;87.41;102010.56;5001456;28;20575;-35
2022/07/13 00:43:01;;;;;;;5.18;3.17;;;;;;;21.79;87.92;102021.09;5003989;28;20108;-33
2022/07/13 00:45:29;;;;;;;5.60;2.70;;;;;;;21.75;88.48;102011.63;5011325;28;20129;-36
2022/07/13 00:47:58;;;;;;;4.05;2.60;;;;;;;21.75;88.85;102013.63;5012187;28;20068;-36
2022/07/13 00:50:27;;;;;;;4.15;2.67;;;;;;;21.74;89.09;102000.59;5011250;28;20046;-39
2022/07/13 00:52:55;;;;;;;5.88;2.85;;;;;;;21.72;89.90;102002.94;5011308;28;20054;-33
2022/07/13 00:55:25;;;;;;;4.05;2.88;;;;;;;21.70;90.98;101993.94;5011100;28;20046;-32
2022/07/13 00:57:53;;;;;;;3.75;2.70;;;;;;;21.69;91.64;101995.13;5002885;28;20046;-40
2022/07/13 01:00:23;;;;;;;5.07;2.90;;;;;;;21.66;92.14;101988.94;5000592;28;20080;-40
2022/07/13 01:02:51;;;;;;;4.30;2.88;;;;;;;21.63;92.87;101995.31;5012427;28;20461;-32
2022/07/13 01:05:19;;;;;;;7.20;3.38;;;;;;;21.60;93.47;101996.00;5014961;28;20491;-33
2022/07/13 01:07:49;;;;;;;4.63;3.10;;;;;;;21.56;93.74;101994.22;5015394;28;20300;-38
2022/07/13 01:10:16;;;;;;;2.88;2.50;;;;;;;21.52;94.20;101993.25;5029787;28;20481;-35
2022/07/13 01:12:44;;;;;;;3.67;2.33;;;;;;;21.51;94.26;101988.75;5015134;28;20077;-40
2022/07/13 01:15:13;;;;;;;5.18;3.00;;;;;;;21.50;94.62;101981.41;5015283;28;20518;-33
2022/07/13 01:17:43;;;;;;;3.90;2.60;;;;;;;21.47;95.19;101982.94;5015269;28;20096;-40
2022/07/13 01:20:11;;;;;;;4.97;2.70;;;;;;;21.45;95.34;101978.75;4996551;28;20073;-35
2022/07/13 01:22:43;;;;;;;3.83;2.50;;;;;;;21.42;95.17;101973.78;5014904;28;20145;-34
2022/07/13 01:25:13;;;;;;;4.40;2.38;;;;;;;21.39;95.30;101966.78;5014802;28;20056;-38
2022/07/13 01:27:43;;;;;;;3.60;2.25;;;;;;;21.36;95.10;101966.66;5014490;28;20038;-34
2022/07/13 01:30:11;;;;;;;5.78;2.10;;;;;;;21.32;94.86;101966.50;5015308;28;20058;-33
2022/07/13 01:32:43;;;;;;;4.38;2.30;;;;;;;21.32;94.66;101963.66;5014336;28;20046;-40
2022/07/13 01:35:11;;;;;;;2.97;2.10;;;;;;;21.29;94.58;101964.34;5013737;28;20054;-38
2022/07/13 01:37:40;;;;;;;3.45;2.10;;;;;;;21.30;94.24;101968.88;5014615;28;20422;-34
2022/07/13 01:40:13;;;;;;;3.05;2.22;;;;;;;21.29;94.09;101967.19;5013785;28;20062;-39
2022/07/13 01:42:42;;;;;;;3.10;2.10;;;;;;;21.26;93.79;101963.03;5014479;28;20533;-38
2022/07/13 01:45:11;;;;;;;3.95;2.00;;;;;;;21.26;93.46;101965.03;5014533;28;20537;-42
2022/07/13 01:47:40;;;;;;;3.83;2.20;;;;;;;21.25;93.48;101957.69;5013705;28;20479;-33
2022/07/13 01:50:09;;;;;;;3.30;2.00;;;;;;;21.26;93.35;101960.19;5014609;28;20046;-33
2022/07/13 01:52:37;;;;;;;2.55;1.80;;;;;;;21.25;94.27;101957.69;5004245;28;20146;-38
2022/07/13 01:55:08;;;;;;;3.92;2.20;;;;;;;21.25;94.51;101960.53;5011665;28;20062;-32
2022/07/13 01:57:38;;;;;;;2.55;1.80;;;;;;;21.25;95.19;101954.88;5013089;28;20084;-43
2022/07/13 02:00:10;;;;;;;2.83;2.20;;;;;;;21.23;95.31;101951.53;5012900;28;20069;-33
2022/07/13 02:02:41;;;;;;;3.10;2.10;;;;;;;21.23;95.44;101948.69;5014089;28;20049;-37
2022/07/13 02:05:14;;;;;;;2.78;1.95;;;;;;;21.21;95.79;101945.38;5005695;28;20046;-36
2022/07/13 02:07:43;;;;;;;3.50;2.42;;;;;;;21.23;95.95;101943.00;5003040;28;20092;-33
2022/07/13 02:10:12;;;;;;;4.60;2.50;;;;;;;21.22;96.06;101939.34;5006912;28;20050;-33
2022/07/13 02:12:42;;;;;;;4.07;2.42;;;;;;;21.25;96.13;101935.00;4999328;28;20088;-34
2022/07/13 02:15:11;;;;;;;4.13;2.50;;;;;;;21.22;96.25;101930.81;5012183;28;20099;-36
2022/07/13 02:17:39;;;;;;;3.97;2.90;;;;;;;21.22;96.88;101930.00;5014266;28;20129;-33
2022/07/13 02:20:08;;;;;;;5.70;3.80;;;;;;;21.22;97.34;101921.47;5014195;28;20073;-34
2022/07/13 02:22:43;;;;;;;5.28;3.90;;;;;;;21.24;97.54;101924.81;5013671;28;20037;-33
2022/07/13 02:25:11;;;;;;;5.07;3.38;;;;;;;21.23;97.67;101917.47;5013683;28;20046;-35
2022/07/13 02:27:42;;;;;;;5.97;3.90;;;;;;;21.23;97.53;101925.97;5012672;28;20038;-39
2022/07/13 02:30:12;;;;;;;5.00;4.30;;;;;;;21.23;97.68;101917.47;5023708;28;20129;-39
2022/07/13 02:32:41;;;;;;;4.35;3.80;;;;;;;21.24;97.58;101919.97;5012876;28;20172;-42
2022/07/13 02:35:10;;;;;;;4.65;3.35;;;;;;;21.26;97.58;101916.78;5012023;28;20533;-38
2022/07/13 02:37:38;;;;;;;9.63;4.78;;;;;;;21.26;97.71;101916.78;5009375;28;20076;-40
2022/07/13 02:40:08;;;;;;;5.93;5.03;;;;;;;21.27;97.62;101924.13;5013184;28;20038;-39
2022/07/13 02:42:36;;;;;;;6.30;4.57;;;;;;;21.26;97.51;101911.09;5013540;28;20085;-42
2022/07/13 02:45:07;;;;;;;5.60;4.68;;;;;;;21.27;97.34;101919.28;5013276;28;20073;-34
2022/07/13 02:47:35;;;;;;;5.77;4.67;;;;;;;21.27;97.56;101921.28;5014125;28;20050;-34
2022/07/13 02:50:03;;;;;;;7.45;4.90;;;;;;;21.28;97.63;101920.09;5021517;28;20351;-35
2022/07/13 02:52:31;;;;;;;6.47;4.80;;;;;;;21.27;98.26;101924.94;5013470;28;20077;-40
2022/07/13 02:54:59;;;;;;;7.22;4.90;;;;;;;21.28;98.70;101931.47;5005518;28;20557;-40
2022/07/13 02:57:27;;;;;;;6.53;4.85;;;;;;;21.26;98.95;101920.44;5012096;28;20050;-33
2022/07/13 02:59:59;;;;;;;6.07;4.90;;;;;;;21.23;99.33;101923.16;5011880;28;20053;-34
2022/07/13 03:02:29;;;;;;;7.88;5.60;;;;;;;21.21;99.73;101914.97;5012248;28;20046;-34
2022/07/13 03:04:58;;;;;;;6.03;4.90;;;;;;;21.20;99.98;101924.66;5011147;28;20054;-41
2022/07/13 03:07:27;;;;;;;7.47;5.10;;;;;;;21.22;100.00;101930.00;5014726;28;20054;-38
2022/07/13 03:09:54;;;;;;;6.45;4.93;;;;;;;21.21;100.00;101928.34;5003370;28;20460;-34
2022/07/13 03:12:26;;;;;;;8.32;6.22;;;;;;;21.20;100.00;101930.34;5011652;28;20137;-33
2022/07/13 03:14:54;;;;;;;7.10;6.20;;;;;;;21.17;100.00;101931.03;5011367;28;20041;-33
2022/07/13 03:17:23;;;;;;;8.82;6.35;;;;;;;21.14;100.00;101931.72;5011245;28;20071;-37
2022/07/13 03:19:53;;;;;;;8.02;6.20;;;;;;;21.12;100.00;101925.53;5026699;28;20145;-34
2022/07/13 03:22:20;;;;;;;9.13;6.80;;;;;;;21.09;100.00;101922.56;5010944;28;20073;-40
2022/07/13 03:24:49;;;;;;;8.00;6.85;;;;;;;21.03;100.00;101924.75;5010913;28;20056;-44
2022/07/13 03:27:18;;;;;;;9.55;6.65;;;;;;;21.02;100.00;101925.09;5010382;28;20495;-40
2022/07/13 03:29:46;;;;;;;7.07;5.93;;;;;;;20.99;100.00;101924.63;5012950;28;20038;-34
2022/07/13 03:32:14;;;;;;;9.43;6.68;;;;;;;20.97;100.00;101920.47;4998347;28;20584;-37
2022/07/13 03:34:42;;;;;;;7.55;6.40;;;;;;;20.93;100.00;101920.34;5012721;28;20136;-34
2022/07/13 03:37:14;;;;;;;8.05;6.03;;;;;;;20.89;100.00;101908.00;5011448;28;20046;-41
2022/07/13 03:39:42;;;;;;;6.35;5.65;;;;;;;20.87;100.00;101916.03;5011800;28;20057;-35
2022/07/13 03:42:10;;;;;;;6.63;5.63;;;;;;;20.85;100.00;101917.53;5009263;28;20057;-38
2022/07/13 03:44:38;;;;;;;7.13;5.25;;;;;;;20.83;100.00;101909.38;5008273;28;20081;-34
2022/07/13 03:47:06;;;;;;;7.32;5.32;;;;;;;20.84;100.00;101902.53;5010282;28;20036;-37
2022/07/13 03:49:35;;;;;;;7.05;4.70;;;;;;;20.82;100.00;101912.53;5008430;28;20050;-34
2022/07/13 03:52:03;;;;;;;8.32;5.32;;;;;;;20.82;100.00;101912.53;5008657;28;20297;-34
2022/07/13 03:54:32;;;;;;;6.03;4.20;;;;;;;20.79;100.00;101916.91;5010519;28;20054;-32
2022/07/13 03:57:00;;;;;;;4.35;3.60;;;;;;;20.75;100.00;101915.13;5001975;28;20100;-36
2022/07/13 03:59:28;;;;;;;4.50;3.58;;;;;;;20.73;100.00;101908.94;5004379;28;20046;-40
2022/07/13 04:01:56;;;;;;;4.57;2.95;;;;;;;20.70;100.00;101907.63;5012097;28;20129;-33
2022/07/13 04:04:24;;;;;;;5.00;3.83;;;;;;;20.67;100.00;101905.47;5012639;28;20461;-34
2022/07/13 04:06:52;;;;;;;5.30;3.70;;;;;;;20.66;100.00;101912.31;5011699;28;20052;-33
2022/07/13 04:09:20;;;;;;;5.28;3.83;;;;;;;20.65;100.00;101913.47;5003257;28;20514;-37
2022/07/13 04:11:50;;;;;;;4.40;3.38;;;;;;;20.64;100.00;101920.31;4999649;28;20049;-36
2022/07/13 04:14:19;;;;;;;4.80;4.10;;;;;;;20.63;100.00;101922.34;5010576;28;20137;-33
2022/07/13 04:16:48;;;;;;;4.50;3.53;;;;;;;20.63;100.00;101919.50;5010694;28;20133;-38
2022/07/13 04:19:16;;;;;;;4.32;3.65;;;;;;;20.63;100.00;101930.00;4996813;28;20137;-36
2022/07/13 04:21:44;;;;;;;3.90;3.28;;;;;;;20.62;100.00;101919.84;4995922;28;20056;-33
2022/07/13 04:24:15;;;;;;;5.35;3.42;;;;;;;20.62;100.00;101919.84;5002430;28;20057;-34
2022/07/13 04:26:44;;;;;;;6.35;3.88;;;;;;;20.61;100.00;101918.16;4994852;28;20045;-38
2022/07/13 04:29:13;;;;;;;4.03;3.20;;;;;;;20.61;100.00;101923.84;5009885;28;20486;-43
2022/07/13 04:31:41;;;;;;;4.55;3.53;;;;;;;20.61;100.00;101915.34;5012002;28;20050;-33
2022/07/13 04:34:09;;;;;;;4.75;3.33;;;;;;;20.62;100.00;101914.16;4999102;28;20096;-44
2022/07/13 04:36:42;;;;;;;4.88;2.92;;;;;;;20.63;100.00;101915.81;5014248;28;20437;-36
2022/07/13 04:39:10;;;;;;;5.70;3.58;;;;;;;20.62;100.00;101917.84;5003787;28;20038;-34
2022/07/13 04:41:38;;;;;;;5.15;3.47;;;;;;;20.62;100.00;101911.31;5010183;28;20439;-33
2022/07/13 04:44:07;;;;;;;3.72;2.70;;;;;;;20.61;100.00;101909.66;5013557;28;20068;-37
2022/07/13 04:46:36;;;;;;;5.63;3.58;;;;;;;20.60;100.00;101920.16;5011603;28;20047;-34
2022/07/13 04:49:05;;;;;;;4.35;2.95;;;;;;;20.60;100.00;101913.66;5011257;28;20046;-33
2022/07/13 04:51:35;;;;;;;5.28;3.38;;;;;;;20.58;100.00;101916.03;5014696;28;20393;-33
2022/07/13 04:54:05;;;;;;;5.63;3.72;;;;;;;20.60;100.00;101910.84;5014014;28;20072;-34
2022/07/13 04:56:32;;;;;;;5.25;3.70;;;;;;;20.60;100.00;101919.34;5014224;28;20050;-38
2022/07/13 04:59:00;;;;;;;6.93;3.78;;;;;;;20.61;100.00;101919.00;5012746;28;20042;-33
2022/07/13 05:01:28;;;;;;;6.38;4.15;;;;;;;20.61;100.00;101913.34;5011319;28;20051;-32
2022/07/13 05:04:04;;;;;;;3.63;2.58;;;;;;;20.62;100.00;101917.00;5006798;28;20057;-34
2022/07/13 05:06:32;;;;;;;3.70;2.75;;;;;;;20.64;100.00;101915.50;5015502;28;20049;-32
2022/07/13 05:09:02;;;;;;;4.00;3.03;;;;;;;20.68;100.00;101907.13;5025483;28;20685;-36
2022/07/13 05:11:31;;;;;;;4.05;3.10;;;;;;;20.68;100.00;101904.28;5029203;28;20050;-36
2022/07/13 05:14:00;;;;;;;3.38;2.40;;;;;;;20.69;100.00;101897.44;5007616;28;20507;-33
2022/07/13 05:16:30;;;;;;;4.68;3.42;;;;;;;20.71;100.00;101909.28;5014412;28;20053;-37
2022/07/13 05:19:01;;;;;;;4.60;3.42;;;;;;;20.70;100.00;101901.13;5025478;28;20137;-37
2022/07/13 05:21:38;;;;;;;4.45;3.10;;;;;;;20.71;100.00;101899.94;5018504;28;20050;-33
2022/07/13 05:24:09;;;;;;;6.95;3.72;;;;;;;20.72;100.00;101912.97;5013176;28;20042;-33
2022/07/13 05:26:38;;;;;;;3.97;3.10;;;;;;;20.75;100.00;101913.09;5008394;28;20057;-32
2022/07/13 05:29:06;;;;;;;4.18;2.90;;;;;;;20.78;100.00;101914.44;5008432;28;20411;-32
2022/07/13 05:31:36;;;;;;;4.68;2.55;;;;;;;20.80;100.00;101915.72;5012313;28;20499;-32
2022/07/13 05:34:06;;;;;;;5.75;3.20;;;;;;;20.81;100.00;101923.06;5008741;28;20139;-40
2022/07/13 05:36:38;;;;;;;3.13;2.60;;;;;;;20.84;100.00;101913.03;5012103;28;20054;-35
2022/07/13 05:39:06;;;;;;;4.85;2.72;;;;;;;20.83;100.00;101926.38;5013395;28;20284;-41
2022/07/13 05:41:36;;;;;;;3.28;2.40;;;;;;;20.84;100.00;101921.53;5012355;28;20069;-33
2022/07/13 05:44:05;;;;;;;4.40;2.67;;;;;;;20.85;100.00;101924.03;5014171;28;20050;-40
2022/07/13 05:46:32;;;;;;;5.40;3.10;;;;;;;20.84;100.00;101921.53;5014055;28;20089;-34
2022/07/13 05:49:01;;;;;;;3.92;2.40;;;;;;;20.84;100.00;101928.06;5013563;28;20093;-38
2022/07/13 05:51:28;;;;;;;3.80;2.67;;;;;;;20.86;100.00;101922.03;5014287;28;20086;-37
2022/07/13 05:54:06;;;;;;;5.63;3.53;;;;;;;20.87;100.00;101923.69;5012649;28;20073;-34
2022/07/13 05:56:54;;;;;;;6.18;3.42;;;;;;;20.87;100.00;101923.69;5014632;28;20065;-40
2022/07/13 05:59:22;;;;;;;5.75;3.03;;;;;;;20.89;100.00;101918.53;5014340;28;20164;-34
2022/07/13 06:01:50;;;;;;;4.30;2.92;;;;;;;20.89;100.00;101913.69;5012057;28;20053;-34
2022/07/13 06:04:18;;;;;;;4.25;2.88;;;;;;;20.92;100.00;101918.66;5012770;28;20115;-36
2022/07/13 06:06:46;;;;;;;5.35;3.17;;;;;;;20.95;100.00;101917.16;5011565;28;20367;-40
2022/07/13 06:09:15;;;;;;;4.85;3.47;;;;;;;20.98;100.00;101911.59;5012940;28;20033;-33
2022/07/13 06:11:43;;;;;;;5.78;3.30;;;;;;;21.00;100.00;101919.75;5012806;28;20082;-35
2022/07/13 06:14:10;;;;;;;3.63;2.80;;;;;;;21.03;100.00;101913.41;5012648;28;20053;-41
2022/07/13 06:16:38;;;;;;;3.67;2.47;;;;;;;21.07;100.00;101911.56;5012324;28;20475;-33
2022/07/13 06:19:06;;;;;;;5.03;2.67;;;;;;;21.13;100.00;101915.03;5014370;28;20077;-37
2022/07/13 06:21:34;;;;;;;4.97;2.67;;;;;;;21.19;100.00;101911.59;5013238;28;20046;-40
2022/07/13 06:24:01;;;;;;;5.07;2.65;;;;;;;21.27;100.00;101916.44;5013860;28;20141;-36
2022/07/13 06:26:31;;;;;;;3.72;3.00;;;;;;;21.39;100.00;101912.81;5013768;28;20476;-35
2022/07/13 06:28:58;;;;;;;5.15;2.60;;;;;;;21.51;100.00;101917.75;5013561;28;20125;-38
2022/07/13 06:31:26;;;;;;;3.95;2.40;;;;;;;21.65;100.00;101919.09;5013233;28;20054;-37
2022/07/13 06:33:54;;;;;;;4.68;2.83;;;;;;;21.86;100.00;101919.06;5013833;28;20041;-33
2022/07/13 06:36:22;;;;;;;4.30;3.00;;;;;;;22.10;100.00;101917.50;5012826;28;20044;-34
2022/07/13 06:38:50;;;;;;;5.05;2.40;;;;;;;22.38;100.00;101918.50;5013586;28;20180;-37
2022/07/13 06:41:18;;;;;;;6.35;2.80;;;;;;;22.75;100.00;101922.19;5013195;28;20050;-38
2022/07/13 06:43:47;;;;;;;3.28;2.50;;;;;;;23.25;100.00;101924.63;5013033;28;20115;-33
2022/07/13 06:46:15;;;;;;;5.20;3.00;;;;;;;23.79;100.00;101927.06;5013703;28;20050;-33
2022/07/13 06:48:52;;;;;;;5.18;2.70;;;;;;;24.53;100.00;101921.78;5013000;28;20049;-37
2022/07/13 06:51:20;;;;;;;5.20;3.40;;;;;;;25.24;100.00;101923.50;5013389;28;20050;-32
2022/07/13 06:53:47;;;;;;;5.28;2.53;;;;;;;25.89;98.40;101930.25;5013288;28;20403;-34
2022/07/13 06:56:15;;;;;;;4.05;2.40;;;;;;;26.43;94.58;101924.34;5013155;28;20064;-34
2022/07/13 06:58:44;;;;;;;4.80;2.50;;;;;;;26.94;90.97;101926.88;5012458;28;20056;-33
2022/07/13 07:01:13;;;;;;;3.88;2.50;;;;;;;27.49;87.31;101914.94;5013777;28;20054;-39
2022/07/13 07:03:41;;;;;;;6.07;2.50;;;;;;;28.05;83.89;101923.44;5012393;28;20034;-41
2022/07/13 07:06:09;;;;;;;4.88;2.50;;;;;;;28.60;80.08;101927.28;5013164;28;20060;-41
2022/07/13 07:08:36;;;;;;;4.32;2.15;;;;;;;29.15;77.37;101924.44;5013054;28;20612;-38
2022/07/13 07:11:04;;;;;;;4.40;2.47;;;;;;;29.73;73.46;101933.00;5012852;28;20053;-36
2022/07/13 07:13:32;;;;;;;5.53;2.13;;;;;;;30.21;69.65;101929.03;5012642;28;20422;-38
2022/07/13 07:16:01;;;;;;;5.47;2.10;;;;;;;30.64;67.21;101929.94;5005291;28;20336;-43
2022/07/13 07:18:30;;;;;;;4.93;2.05;;;;;;;31.07;65.16;101930.72;5012186;28;20056;-41
2022/07/13 07:21:00;;;;;;;4.68;2.10;;;;;;;31.51;62.23;101927.31;5013337;28;20045;-34
2022/07/13 07:23:28;;;;;;;3.70;2.05;;;;;;;31.87;59.66;101933.78;5012079;28;20058;-38
2022/07/13 07:25:56;;;;;;;3.75;1.90;;;;;;;32.21;57.90;101930.31;5013089;28;20038;-38
2022/07/13 07:28:23;;;;;;;3.78;1.70;;;;;;;32.55;56.39;101924.72;5012896;28;20475;-36
2022/07/13 07:30:51;;;;;;;4.20;1.90;;;;;;;32.86;54.94;101924.44;5012652;28;20042;-32
2022/07/13 07:33:19;;;;;;;4.13;1.55;;;;;;;33.13;53.95;101921.72;5012528;28;20054;-41
2022/07/13 07:35:48;;;;;;;5.32;2.00;;;;;;;33.43;51.19;101914.34;5011898;28;20042;-42
2022/07/13 07:38:16;;;;;;;3.47;1.70;;;;;;;33.69;50.66;101913.63;5012273;28;20383;-35
2022/07/13 07:40:44;;;;;;;2.42;1.60;;;;;;;34.00;48.16;101908.66;5011671;28;20053;-43
2022/07/13 07:43:12;;;;;;;3.92;2.00;;;;;;;34.21;47.20;101917.03;5012773;28;20054;-38
2022/07/13 07:45:40;;;;;;;5.15;1.95;;;;;;;34.34;47.46;101905.69;5012390;28;20042;-36
2022/07/13 07:48:08;;;;;;;7.05;2.00;;;;;;;34.59;45.82;101904.44;5012297;28;20134;-34
2022/07/13 07:50:36;;;;;;;2.83;1.40;;;;;;;34.80;45.47;101912.78;5012384;28;20048;-35
2022/07/13 07:53:05;;;;;;;3.83;1.50;;;;;;;34.98;45.05;101909.56;5012148;28;20434;-36
2022/07/13 07:55:34;;;;;;;3.17;1.40;;;;;;;35.20;43.91;101908.69;5012357;28;20491;-40
2022/07/13 07:58:02;;;;;;;4.25;1.50;;;;;;;35.47;42.99;101917.31;5012697;28;20049;-37
2022/07/13 08:00:30;;;;;;;3.00;1.30;;;;;;;35.75;42.52;101924.63;5011480;28;20046;-38
2022/07/13 08:03:02;;;;;;;4.72;1.70;;;;;;;35.95;41.24;101924.63;5012383;28;20053;-41
2022/07/13 08:05:31;;;;;;;3.97;1.83;;;;;;;36.14;41.49;101917.13;5012236;28;20042;-36
2022/07/13 08:08:00;;;;;;;3.78;1.42;;;;;;;36.33;40.69;101922.09;5012006;28;20056;-42
2022/07/13 08:10:30;;;;;;;4.28;1.42;;;;;;;36.46;40.33;101919.28;5011019;28;20491;-39
2022/07/13 08:13:00;;;;;;;;;;;;;;;36.56;37.41;101912.38;5012570;28;20525;-38
2022/07/13 08:15:28;;;;;;;4.90;1.50;;;;;;;36.69;40.24;101910.38;5011693;28;20392;-38
2022/07/13 08:17:56;;;;;;;3.92;1.60;;;;;;;36.83;38.83;101912.09;5012587;28;20487;-37
2022/07/13 08:20:25;;;;;;;3.35;1.90;;;;;;;36.89;37.91;101914.00;5011583;28;20045;-40
2022/07/13 08:22:53;;;;;;;3.20;1.50;;;;;;;36.97;36.87;101917.56;5012097;28;20136;-38
2022/07/13 08:25:21;;;;;;;3.75;1.27;;;;;;;37.07;36.79;101928.06;5011835;28;20053;-40
2022/07/13 08:27:51;;;;;;;2.60;1.30;;;;;;;37.16;36.15;101936.97;5011762;28;20042;-42
2022/07/13 08:30:19;;;;;;;3.63;1.70;;;;;;;37.21;35.97;101945.16;5011886;28;20156;-45
2022/07/13 08:32:47;;;;;;;4.35;1.52;;;;;;;37.27;35.29;101950.44;5012200;28;20049;-39
2022/07/13 08:40:46;;;;;;;5.05;1.60;;;;;;;37.46;34.97;101953.19;5011997;28;20070;-41
2022/07/13 08:43:15;;;;;;;3.45;1.63;;;;;;;37.51;34.67;101951.81;5011704;28;20060;-38
2022/07/13 08:45:44;;;;;;;2.80;1.50;;;;;;;37.58;34.62;101945.78;5011985;28;20050;-42
2022/07/13 08:48:16;;;;;;;3.05;1.40;;;;;;;37.72;33.79;101953.31;5010716;28;20529;-41
2022/07/13 08:50:46;;;;;;;5.22;1.63;;;;;;;37.81;33.39;101954.25;5011697;28;20088;-37
2022/07/13 08:53:14;;;;;;;2.95;1.42;;;;;;;37.77;33.17;101956.47;5011618;28;20062;-36
2022/07/13 08:55:42;;;;;;;3.30;1.70;;;;;;;37.74;33.28;101963.25;5011592;28;20422;-40
2022/07/13 08:58:18;;;;;;;3.33;1.40;;;;;;;37.85;32.99;101960.81;5011527;28;20160;-41
2022/07/13 09:00:46;;;;;;;4.45;1.40;;;;;;;37.93;33.44;101961.41;5011708;28;20491;-38
2022/07/13 09:03:14;;;;;;;3.72;1.50;;;;;;;37.97;33.41;101967.16;5010830;28;20045;-41
2022/07/13 09:05:43;;;;;;;2.40;1.20;;;;;;;37.95;33.50;101964.69;5011503;28;20407;-43
2022/07/13 09:08:12;;;;;;;3.35;1.40;;;;;;;37.91;33.04;101952.31;5011553;28;20050;-39
2022/07/13 09:10:52;;;;;;;2.95;1.40;;;;;;;37.89;31.13;101952.78;5011152;28;20483;-40
2022/07/13 09:13:39;;;;;;;3.03;1.50;;;;;;;37.80;32.39;101958.47;5011263;28;20046;-40
2022/07/13 09:16:18;;;;;;;3.58;1.30;;;;;;;37.73;32.38;101958.69;4993510;28;20050;-38
2022/07/13 09:18:47;;;;;;;4.35;1.60;;;;;;;37.83;32.46;101965.47;5009506;28;20454;-40
2022/07/13 09:21:15;;;;;;;2.88;1.40;;;;;;;37.86;32.59;101967.44;5012381;28;20054;-41
2022/07/13 09:23:44;;;;;;;2.70;1.30;;;;;;;37.84;32.49;101976.66;5014463;28;20061;-36
2022/07/13 09:26:13;;;;;;;4.38;1.40;;;;;;;37.87;32.42;101977.84;5014762;28;20482;-41
2022/07/13 09:28:44;;;;;;;2.88;1.23;;;;;;;37.98;32.43;101987.06;5014430;28;20107;-41
2022/07/13 09:31:13;;;;;;;2.70;1.10;;;;;;;37.97;32.17;101993.38;5014604;28;20042;-40
2022/07/13 09:33:43;;;;;;;4.47;1.60;;;;;;;37.96;32.20;101991.75;5014625;28;20053;-40
2022/07/13 09:36:13;;;;;;;3.47;1.35;;;;;;;37.97;32.37;101990.47;5015265;28;20144;-41
2022/07/13 09:38:42;;;;;;;3.80;1.58;;;;;;;37.90;32.06;101997.31;5013935;28;20049;-40
2022/07/13 09:41:24;;;;;;;4.38;1.50;;;;;;;37.87;31.10;101992.41;5015418;28;20052;-40
2022/07/13 09:46:53;;;;;;;3.90;1.60;;;;;;;37.74;32.25;101982.81;5014848;28;20143;-41
2022/07/13 09:49:33;;;;;;;3.85;1.50;;;;;;;37.76;32.75;101984.00;5014473;28;20078;-41
2022/07/13 09:52:02;;;;;;;3.65;1.42;;;;;;;37.72;32.75;101992.03;5014723;28;20132;-39
2022/07/13 09:54:33;;;;;;;3.97;1.60;;;;;;;37.64;32.48;101998.47;5014159;28;20053;-38
2022/07/13 09:57:03;;;;;;;2.58;1.42;;;;;;;37.43;32.06;101991.16;5014996;28;20045;-39
2022/07/13 09:59:32;;;;;;;2.60;1.48;;;;;;;37.28;32.29;101990.75;5013685;28;20049;-37
2022/07/13 10:02:01;;;;;;;2.40;1.48;;;;;;;37.17;32.91;101996.03;5017480;28;20500;-37
2022/07/13 10:04:30;;;;;;;2.55;1.30;;;;;;;37.15;32.12;101999.38;5014407;28;20103;-37
2022/07/13 10:07:16;;;;;;;3.30;1.42;;;;;;;37.13;33.01;101995.28;5014036;28;20072;-41
2022/07/13 10:09:45;;;;;;;3.28;1.40;;;;;;;37.12;32.78;102002.38;5014142;28;20468;-37
2022/07/13 10:12:13;;;;;;;2.78;1.20;;;;;;;37.11;33.03;102006.56;5014282;28;20533;-39
2022/07/13 10:14:42;;;;;;;2.50;1.23;;;;;;;37.16;33.23;102014.75;5013630;28;20553;-38
2022/07/13 10:17:20;;;;;;;3.30;1.30;;;;;;;37.17;32.61;102025.91;5014529;28;20097;-41
2022/07/13 10:19:52;;;;;;;3.63;1.37;;;;;;;37.10;32.75;102025.31;5013582;28;20518;-38
2022/07/13 10:22:22;;;;;;;3.88;1.50;;;;;;;36.93;32.81;102027.41;5014175;28;20297;-35
2022/07/13 10:24:54;;;;;;;2.90;1.40;;;;;;;36.73;32.89;102032.50;5024695;28;20060;-40
2022/07/13 10:27:25;;;;;;;3.10;1.40;;;;;;;36.66;33.54;102035.53;5013768;28;20042;-41
2022/07/13 10:29:55;;;;;;;7.10;1.50;;;;;;;36.55;33.50;102033.72;5013654;28;20054;-37
2022/07/13 10:32:25;;;;;;;3.20;1.30;;;;;;;36.35;33.44;102035.03;5013602;28;20085;-39
2022/07/13 10:34:57;;;;;;;7.10;1.50;;;;;;;36.26;33.56;102029.81;5012381;28;20438;-40
2022/07/13 10:37:26;;;;;;;4.50;1.05;;;;;;;36.15;32.59;102023.41;5003489;28;20063;-37
2022/07/13 10:40:14;;;;;;;3.30;1.13;;;;;;;36.03;31.88;102027.78;5013750;28;20042;-41
2022/07/13 10:43:14;;;;;;;3.75;1.20;;;;;;;36.01;32.06;102033.22;5015628;28;20055;-40
2022/07/13 10:45:45;;;;;;;3.78;1.20;;;;;;;35.88;31.85;102030.19;5008788;28;20053;-41
2022/07/13 10:48:45;;;;;;;2.50;0.98;;;;;;;35.94;32.44;102036.31;5012938;28;20104;-41
2022/07/13 10:51:21;;;;;;;4.75;1.27;;;;;;;36.04;32.60;102046.03;5013449;28;20061;-39
2022/07/13 10:54:11;;;;;;;4.75;1.65;;;;;;;36.01;31.57;102044.84;5015267;28;20057;-40
2022/07/13 10:57:13;;;;;;;4.73;1.30;;;;;;;35.73;32.59;102052.06;5012482;28;20050;-37
2022/07/13 10:59:50;;;;;;;8.00;1.52;;;;;;;35.33;34.03;102047.44;4995153;28;20385;-41
2022/07/13 11:02:46;;;;;;;5.45;1.60;;;;;;;35.10;34.34;102059.81;5012483;28;20073;-36
2022/07/13 11:05:17;;;;;;;4.47;1.40;;;;;;;34.87;35.29;102057.72;5013325;28;20050;-32
2022/07/13 11:07:46;;;;;;;9.07;1.90;;;;;;;34.61;35.55;102064.28;5013058;28;20135;-37
2022/07/13 11:10:20;;;;;;;4.72;1.50;;;;;;;34.32;36.09;102053.13;5012433;28;20056;-40
2022/07/13 11:13:03;;;;;;;4.13;1.80;;;;;;;34.16;36.44;102056.63;5012112;28;20140;-38
2022/07/13 11:15:48;;;;;;;3.53;1.20;;;;;;;33.95;36.06;102062.69;5013151;28;20076;-42
2022/07/13 11:18:37;;;;;;;3.35;1.40;;;;;;;33.64;36.31;102064.63;5012725;28;20073;-39
2022/07/13 11:21:08;;;;;;;4.65;1.20;;;;;;;33.35;37.29;102055.44;5011211;28;20469;-37
2022/07/13 11:26:51;;;;;;;2.75;1.13;;;;;;;33.04;39.18;102068.06;5012825;28;20046;-39
2022/07/13 11:29:21;;;;;;;5.25;1.17;;;;;;;33.09;39.15;102062.66;5003850;28;20046;-37
2022/07/13 11:31:55;;;;;;;2.25;0.90;;;;;;;33.04;39.33;102060.22;5011938;28;20479;-39
2022/07/13 11:34:24;;;;;;;4.47;1.30;;;;;;;33.01;38.78;102060.25;5002964;28;20104;-35
2022/07/13 11:36:53;;;;;;;2.95;1.30;;;;;;;32.94;39.06;102066.91;5012103;28;20057;-36
2022/07/13 11:39:23;;;;;;;3.95;1.75;;;;;;;32.78;39.74;102079.00;5012620;28;20148;-33
2022/07/13 11:41:53;;;;;;;2.92;1.20;;;;;;;32.76;40.49;102084.41;5012371;28;20049;-38
2022/07/13 11:44:23;;;;;;;4.37;1.67;;;;;;;32.65;39.78;102085.66;5012112;28;20085;-40
2022/07/13 11:46:51;;;;;;;4.53;1.50;;;;;;;32.39;40.52;102087.03;5012298;28;20313;-34